Damanhour, Egypt

03:07 EET 27. Červenec 2016 (GMT +0200)
Alexandria International | | Change Station

Výška 23 ft 31.18 °N, 29.95 °E | Updated 1 hour ago

Clear
Jasno
79 °F
Pocit jako 79 °F
S
9
Vítr proměnlivý Vítr od severní

Dnes
Vysoké -- | Nízké -- °F
--% Možnost srážek
Včera
Vysoké -- | Nízké -- °F
Precip. -- inčů
Tlak 29.74 inčů
Viditelnost -9999.0 mílí
Zataženo
Rosný bod 66 °F
Vlhkost 65%
Dešťové srážky 0.00 inčů
Sněhová pokrývka Není k dispozici
5:12 AM 6:56 PM
Ubývající měsíc, 49% visible
METAR HEAX 270000Z 35008KT CAVOK 26/19 Q1007 NOSIG
Tlak 29.74 inčů
Viditelnost -9999.0 mílí
Zataženo
Rosný bod 66 °F
Vlhkost 65%
Dešťové srážky 0.00 inčů
Sněhová pokrývka Není k dispozici
5:12 AM 6:56 PM
Ubývající měsíc, 49% visible
METAR HEAX 270000Z 35008KT CAVOK 26/19 Q1007 NOSIG

10-Day Weather Forecast

No radar image for this location.
×

Almanac

Astronomie

Jul. 27, 2016 Východ Západ
Skutečný čas
Občanský soumrak
Námořní soumrak
Astronomický soumrak
Měsíc
Délka denního světla
Délka dne
Tomorrow will be .
, % of the Moon is Illuminated

Dnešní extrémy

Nejvyšší hodnoty ve státě Nejnižší hodnoty ve státě

Community

WunderPhotos

Upload Photos

1,927,762 snímků staženo!

WunderBlog® & News

Nearby

Kvalita ovzduší

  Kvalita ovzduší Index kvality ovzduší Polutant
Not available.

Výška sněhu

Station Hloubka Nadmořská výška

Seizmická činnost

Město Distance Mag. Čas & datum
Minimální zobrazený rozsah je 2.5.

Pobřežní teplota vody

Lokalita Teplota

Stations

Poblíž povětrnostní stanice

Lokace stanice Tepl. Ochlazování větrem Rosný bod Vlhkost Vítr Precip. Výška Čas hlášení Typ